createdAt,value
2019-05-02T00:01:16.710Z,34.67
2019-05-02T00:03:45.813Z,33.90
2019-05-02T00:06:15.337Z,34.63
2019-05-02T00:08:44.627Z,35.43
2019-05-02T00:11:13.930Z,36.23
2019-05-02T00:13:42.967Z,34.50
2019-05-02T00:16:14.241Z,35.60
2019-05-02T00:18:43.014Z,33.00
2019-05-02T00:21:12.553Z,37.63
2019-05-02T00:23:41.621Z,32.38
2019-05-02T00:26:10.934Z,39.55
2019-05-02T00:28:42.864Z,33.58
2019-05-02T00:31:11.573Z,34.63
2019-05-02T00:33:41.579Z,37.45
2019-05-02T00:36:10.710Z,37.35
2019-05-02T00:38:39.945Z,35.28
2019-05-02T00:41:09.049Z,38.88
2019-05-02T00:43:38.061Z,36.95
2019-05-02T00:46:07.206Z,41.28
2019-05-02T00:48:44.141Z,37.35
2019-05-02T00:51:13.063Z,45.70
2019-05-02T00:53:44.497Z,39.63
2019-05-02T00:56:13.018Z,37.58
2019-05-02T00:58:42.112Z,35.35
2019-05-02T01:01:39.408Z,36.38
2019-05-02T01:04:33.630Z,39.08
2019-05-02T01:07:04.245Z,37.38
2019-05-02T01:09:33.416Z,37.80
2019-05-02T01:12:03.193Z,35.90
2019-05-02T01:14:33.369Z,38.95
2019-05-02T01:17:02.491Z,39.83
2019-05-02T01:19:31.734Z,41.40
2019-05-02T01:22:00.789Z,35.20
2019-05-02T01:24:34.119Z,39.00
2019-05-02T01:27:07.607Z,34.35
2019-05-02T01:29:47.869Z,37.03
2019-05-02T01:32:32.694Z,33.90
2019-05-02T01:35:12.540Z,35.25
2019-05-02T01:38:15.992Z,34.67
2019-05-02T01:40:48.148Z,33.75
2019-05-02T01:43:29.277Z,38.45
2019-05-02T01:45:58.495Z,40.63
2019-05-02T01:48:27.753Z,35.58
2019-05-02T01:50:56.812Z,34.03
2019-05-02T01:53:29.243Z,31.40
2019-05-02T01:55:57.367Z,37.33
2019-05-02T01:58:27.384Z,39.50
2019-05-02T02:00:56.571Z,35.58
2019-05-02T02:03:25.607Z,30.50
2019-05-02T02:05:54.662Z,42.78
2019-05-02T02:08:27.521Z,40.83
2019-05-02T02:10:56.223Z,46.42
2019-05-02T02:13:25.128Z,40.90
2019-05-02T02:15:54.192Z,37.78
2019-05-02T02:18:27.635Z,38.65
2019-05-02T02:21:29.502Z,41.73
2019-05-02T02:24:08.541Z,39.23
2019-05-02T02:26:37.636Z,42.50
2019-05-02T02:29:07.807Z,42.60
2019-05-02T02:31:39.897Z,42.30
2019-05-02T02:34:08.201Z,45.35
2019-05-02T02:36:37.244Z,75.80
2019-05-02T02:39:14.541Z,45.43
2019-05-02T02:41:38.737Z,44.33
2019-05-02T02:44:33.538Z,45.70
2019-05-02T02:47:00.733Z,45.45
2019-05-02T02:49:29.995Z,45.48
2019-05-02T02:52:04.762Z,41.55
2019-05-02T02:54:29.770Z,49.40
2019-05-02T02:56:58.817Z,53.33
2019-05-02T02:59:28.286Z,44.50
2019-05-02T03:02:09.146Z,47.38
2019-05-02T03:04:28.205Z,49.83
2019-05-02T03:06:57.333Z,49.30
2019-05-02T03:09:28.509Z,49.83
2019-05-02T03:12:15.094Z,46.10
2019-05-02T03:14:49.535Z,48.10
2019-05-02T03:17:20.358Z,50.20
2019-05-02T03:19:54.206Z,46.58
2019-05-02T03:22:20.665Z,43.58
2019-05-02T03:24:50.074Z,46.98
2019-05-02T03:27:19.156Z,47.20
2019-05-02T03:29:48.240Z,51.25
2019-05-02T03:32:32.082Z,49.35
2019-05-02T03:34:52.916Z,49.50
2019-05-02T03:37:18.754Z,55.88
2019-05-02T03:39:57.427Z,49.65
2019-05-02T03:42:19.613Z,52.17
2019-05-02T03:44:55.186Z,50.00
2019-05-02T03:47:19.468Z,43.55
2019-05-02T03:49:51.755Z,49.73
2019-05-02T03:52:19.341Z,44.27
2019-05-02T03:54:50.301Z,53.83
2019-05-02T03:57:32.448Z,53.65
2019-05-02T03:59:49.939Z,52.13
2019-05-02T04:02:20.384Z,52.93
2019-05-02T04:04:54.143Z,50.17
2019-05-02T04:07:20.899Z,52.33
2019-05-02T04:09:50.047Z,46.75
2019-05-02T04:12:21.860Z,47.50
2019-05-02T04:14:55.621Z,49.77
2019-05-02T04:17:22.074Z,49.85
2019-05-02T04:19:51.202Z,49.50
2019-05-02T04:22:20.833Z,47.90
2019-05-02T04:24:54.567Z,46.28
2019-05-02T04:27:21.097Z,47.38
2019-05-02T04:29:50.248Z,49.15
2019-05-02T04:32:19.457Z,52.30
2019-05-02T04:34:55.343Z,52.95
2019-05-02T04:37:19.388Z,55.58
2019-05-02T04:39:49.161Z,48.68
2019-05-02T04:42:23.007Z,46.85
2019-05-02T04:45:12.864Z,44.33
2019-05-02T04:47:21.817Z,49.93
2019-05-02T04:49:52.137Z,46.68
2019-05-02T04:52:21.503Z,51.08
2019-05-02T04:54:50.774Z,53.30
2019-05-02T04:57:19.799Z,52.17
2019-05-02T04:59:50.599Z,58.83
2019-05-02T05:02:21.174Z,55.60
2019-05-02T05:04:50.345Z,52.60
2019-05-02T05:07:19.430Z,47.95
2019-05-02T05:09:57.056Z,47.60
2019-05-02T05:12:19.555Z,54.40
2019-05-02T05:14:48.622Z,49.45
2019-05-02T05:17:19.898Z,55.78
2019-05-02T05:19:48.875Z,52.75
2019-05-02T05:22:18.517Z,52.23
2019-05-02T05:24:53.445Z,51.77
2019-05-02T05:27:22.899Z,53.63
2019-05-02T05:29:53.554Z,51.60
2019-05-02T05:32:22.834Z,65.55
2019-05-02T05:34:51.924Z,70.28
2019-05-02T05:37:20.852Z,72.70
2019-05-02T05:39:52.605Z,62.25
2019-05-02T05:42:23.421Z,74.58
2019-05-02T05:44:51.322Z,72.30
2019-05-02T05:47:21.456Z,69.45
2019-05-02T05:49:52.248Z,75.80
2019-05-02T05:52:21.564Z,73.87
2019-05-02T05:54:50.626Z,83.45
2019-05-02T05:57:21.202Z,64.50
2019-05-02T05:59:50.398Z,77.95
2019-05-02T06:02:19.509Z,62.33
2019-05-02T06:04:50.198Z,75.40
2019-05-02T06:07:20.066Z,65.30
2019-05-02T06:09:49.411Z,63.60
2019-05-02T06:12:18.235Z,67.97
2019-05-02T06:14:47.304Z,74.37
2019-05-02T06:17:16.279Z,70.87
2019-05-02T06:19:48.186Z,77.37
2019-05-02T06:22:23.932Z,83.27
2019-05-02T06:24:50.753Z,66.45
2019-05-02T06:27:20.966Z,72.78
2019-05-02T06:29:51.212Z,79.32
2019-05-02T06:32:20.559Z,74.05
2019-05-02T06:34:50.077Z,70.15
2019-05-02T06:37:19.203Z,70.95
2019-05-02T06:39:48.087Z,70.92
2019-05-02T06:42:17.088Z,67.65
2019-05-02T06:44:46.177Z,67.50
2019-05-02T06:47:15.159Z,79.35
2019-05-02T06:49:44.090Z,68.83
2019-05-02T06:52:13.067Z,64.00
2019-05-02T06:54:42.011Z,62.65
2019-05-02T06:57:10.975Z,68.57
2019-05-02T06:59:40.052Z,60.20
2019-05-02T07:02:09.327Z,60.15
2019-05-02T07:04:38.414Z,56.65
2019-05-02T07:07:07.604Z,55.12
2019-05-02T07:09:40.786Z,52.65
2019-05-02T07:12:09.939Z,53.85
2019-05-02T07:14:38.679Z,60.17
2019-05-02T07:17:15.827Z,60.48
2019-05-02T07:19:51.049Z,48.35
2019-05-02T07:22:20.526Z,44.35
2019-05-02T07:24:49.665Z,51.90
2019-05-02T07:27:18.839Z,41.25
2019-05-02T07:29:52.138Z,39.08
2019-05-02T07:32:19.368Z,36.05
2019-05-02T07:34:49.457Z,36.98
2019-05-02T07:37:18.742Z,40.95
2019-05-02T07:39:47.875Z,41.33
2019-05-02T07:42:17.023Z,43.23
2019-05-02T07:44:46.167Z,34.85
2019-05-02T07:47:15.273Z,40.30
2019-05-02T07:49:44.646Z,43.35
2019-05-02T07:52:13.886Z,32.93
2019-05-02T07:54:42.911Z,40.05
2019-05-02T07:57:11.941Z,45.60
2019-05-02T07:59:41.163Z,44.73
2019-05-02T08:02:10.191Z,45.08
2019-05-02T08:04:43.700Z,45.70
2019-05-02T08:07:10.022Z,46.83
2019-05-02T08:09:43.592Z,44.48
2019-05-02T08:12:10.267Z,46.55
2019-05-02T08:14:39.410Z,38.63
2019-05-02T08:17:16.017Z,45.28
2019-05-02T08:19:41.750Z,48.75
2019-05-02T08:22:13.477Z,48.78
2019-05-02T08:24:40.851Z,50.48
2019-05-02T08:27:29.274Z,50.92
2019-05-02T08:30:00.023Z,51.13
2019-05-02T08:32:30.718Z,50.10
2019-05-02T08:34:59.961Z,54.83
2019-05-02T08:37:28.902Z,47.90
2019-05-02T08:39:57.881Z,47.97
2019-05-02T08:42:27.735Z,45.97
2019-05-02T08:45:00.918Z,51.57
2019-05-02T08:47:30.514Z,44.70
2019-05-02T08:49:59.483Z,45.27
2019-05-02T08:52:28.561Z,41.50
2019-05-02T08:54:57.517Z,52.30
2019-05-02T08:57:30.031Z,45.93
2019-05-02T09:00:00.262Z,46.87
2019-05-02T09:02:40.576Z,44.03
2019-05-02T09:04:59.270Z,42.90
2019-05-02T09:07:31.549Z,52.60
2019-05-02T09:10:05.315Z,44.43
2019-05-02T09:12:31.927Z,41.97
2019-05-02T09:15:02.734Z,42.13
2019-05-02T09:17:36.065Z,41.20
2019-05-02T09:20:10.189Z,35.73
2019-05-02T09:22:33.447Z,37.27
2019-05-02T09:25:02.475Z,41.13
2019-05-02T09:27:33.286Z,43.30
2019-05-02T09:30:02.746Z,38.83
2019-05-02T09:32:32.305Z,39.60
2019-05-02T09:35:06.079Z,36.53
2019-05-02T09:37:32.224Z,44.60
2019-05-02T09:40:02.206Z,39.00
2019-05-02T09:42:32.526Z,51.93
2019-05-02T09:45:03.081Z,43.23
2019-05-02T09:47:37.894Z,42.03
2019-05-02T09:50:20.465Z,49.93
2019-05-02T09:52:47.845Z,40.80
2019-05-02T09:55:17.816Z,46.00
2019-05-02T09:57:46.903Z,36.87
2019-05-02T10:00:41.818Z,44.13
2019-05-02T10:03:12.121Z,42.03
2019-05-02T10:05:43.060Z,43.60
2019-05-02T10:08:13.902Z,45.00
2019-05-02T10:10:45.833Z,41.70
2019-05-02T10:13:13.771Z,45.10
2019-05-02T10:15:43.045Z,42.23
2019-05-02T10:18:14.539Z,47.03
2019-05-02T10:20:43.401Z,48.60
2019-05-02T10:23:19.643Z,47.73
2019-05-02T10:25:46.815Z,47.90
2019-05-02T10:28:15.569Z,43.53
2019-05-02T10:30:47.273Z,50.60
2019-05-02T10:33:15.786Z,53.90
2019-05-02T10:35:46.382Z,55.37
2019-05-02T10:38:19.471Z,42.37
2019-05-02T10:40:48.347Z,44.83
2019-05-02T10:43:16.820Z,49.70
2019-05-02T10:45:52.926Z,44.13
2019-05-02T10:48:27.422Z,50.47
2019-05-02T10:50:52.481Z,50.53
2019-05-02T10:53:21.951Z,48.37
2019-05-02T10:55:52.387Z,47.03
2019-05-02T10:58:26.197Z,47.83
2019-05-02T11:00:52.568Z,45.47
2019-05-02T11:03:37.950Z,48.40
2019-05-02T11:06:07.887Z,44.37
2019-05-02T11:08:41.431Z,45.17
2019-05-02T11:11:08.295Z,52.57
2019-05-02T11:13:53.322Z,48.17
2019-05-02T11:16:43.370Z,39.73
2019-05-02T11:19:16.324Z,41.10
2019-05-02T11:21:55.824Z,47.63
2019-05-02T11:24:16.186Z,51.57
2019-05-02T11:26:45.166Z,48.60
2019-05-02T11:29:14.232Z,44.13
2019-05-02T11:31:43.134Z,51.53
2019-05-02T11:34:12.483Z,41.57
2019-05-02T11:36:42.106Z,49.40
2019-05-02T11:39:20.864Z,45.53
2019-05-02T11:41:42.359Z,47.37
2019-05-02T11:44:12.117Z,42.80
2019-05-02T11:46:43.087Z,50.13
2019-05-02T11:49:12.628Z,50.77
2019-05-02T11:51:42.129Z,49.33
2019-05-02T11:54:12.916Z,57.17
2019-05-02T11:56:48.739Z,49.40
2019-05-02T11:59:14.903Z,39.93
2019-05-02T12:01:57.603Z,42.77
2019-05-02T12:04:18.357Z,51.50
2019-05-02T12:06:50.002Z,48.77
2019-05-02T12:09:18.559Z,55.77
2019-05-02T12:11:54.986Z,51.20
2019-05-02T12:14:18.495Z,42.13
2019-05-02T12:16:47.381Z,46.77
2019-05-02T12:19:16.386Z,47.17
2019-05-02T12:21:53.350Z,48.03
2019-05-02T12:24:22.319Z,42.70
2019-05-02T12:26:52.866Z,44.13
2019-05-02T12:29:21.929Z,48.10
2019-05-02T12:31:52.656Z,61.80
2019-05-02T12:34:22.107Z,50.70
2019-05-02T12:36:52.321Z,49.20
2019-05-02T12:39:22.197Z,52.33
2019-05-02T12:41:53.712Z,43.43
2019-05-02T12:44:22.636Z,54.87
2019-05-02T12:46:51.922Z,51.03
2019-05-02T12:49:25.267Z,52.10
2019-05-02T12:51:52.562Z,48.43
2019-05-02T12:54:22.061Z,44.00
2019-05-02T12:56:52.813Z,49.83
2019-05-02T12:59:22.538Z,45.30
2019-05-02T13:01:52.006Z,50.30
2019-05-02T13:04:22.936Z,39.50
2019-05-02T13:06:53.060Z,41.43
2019-05-02T13:09:23.373Z,42.87
2019-05-02T13:12:02.852Z,44.37
2019-05-02T13:14:32.909Z,43.27
2019-05-02T13:17:05.591Z,42.67
2019-05-02T13:19:40.052Z,47.50
2019-05-02T13:22:21.777Z,44.10
2019-05-02T13:25:03.245Z,49.20
2019-05-02T13:27:43.469Z,47.93
2019-05-02T13:30:04.864Z,47.03
2019-05-02T13:32:38.950Z,56.77
2019-05-02T13:35:17.694Z,48.53
2019-05-02T13:37:47.584Z,50.90
2019-05-02T13:40:28.391Z,58.33
2019-05-02T13:42:57.420Z,67.23
2019-05-02T13:45:48.683Z,56.70
2019-05-02T13:48:17.799Z,52.57
2019-05-02T13:50:46.717Z,62.07
2019-05-02T13:53:15.747Z,57.53
2019-05-02T13:55:52.381Z,52.77
2019-05-02T13:58:28.688Z,59.10
2019-05-02T14:00:52.940Z,56.50
2019-05-02T14:03:22.651Z,57.20
2019-05-02T14:05:53.928Z,76.47
2019-05-02T14:08:44.378Z,60.73
2019-05-02T14:11:31.822Z,54.60
2019-05-02T14:14:01.885Z,55.40
2019-05-02T14:16:32.094Z,61.30
2019-05-02T14:19:03.005Z,68.43
2019-05-02T14:21:32.286Z,68.03
2019-05-02T14:24:01.785Z,65.93
2019-05-02T14:26:33.042Z,72.30
2019-05-02T14:29:02.521Z,68.97
2019-05-02T14:31:32.359Z,78.07
2019-05-02T14:34:19.386Z,73.00
2019-05-02T14:36:48.519Z,71.10
2019-05-02T14:39:17.659Z,75.63
2019-05-02T14:41:47.014Z,70.23
2019-05-02T14:44:18.024Z,83.33
2019-05-02T14:46:46.870Z,76.93
2019-05-02T14:49:16.736Z,81.30
2019-05-02T14:51:46.813Z,80.90
2019-05-02T14:54:16.120Z,79.53
2019-05-02T14:56:56.359Z,79.43
2019-05-02T14:59:25.424Z,75.10
2019-05-02T15:02:03.114Z,76.20
2019-05-02T15:04:27.941Z,82.50
2019-05-02T15:06:57.021Z,85.20
2019-05-02T15:09:26.946Z,87.30
2019-05-02T15:11:59.033Z,94.40
2019-05-02T15:14:29.548Z,76.10
2019-05-02T15:16:59.087Z,84.00
2019-05-02T15:19:28.502Z,88.30
2019-05-02T15:21:57.860Z,81.77
2019-05-02T15:24:27.789Z,86.20
2019-05-02T15:26:57.723Z,86.77
2019-05-02T15:29:27.480Z,85.93
2019-05-02T15:32:07.099Z,84.13
2019-05-02T15:34:53.043Z,90.90
2019-05-02T15:37:25.657Z,86.57
2019-05-02T15:42:25.574Z,89.50
2019-05-02T15:44:57.206Z,87.43
2019-05-02T15:47:24.937Z,90.63
2019-05-02T15:49:53.887Z,88.13
2019-05-02T15:52:27.969Z,88.93
2019-05-02T15:55:03.537Z,87.23
2019-05-02T15:57:27.726Z,72.53
2019-05-02T15:59:56.742Z,82.83
2019-05-02T16:02:26.874Z,76.60
2019-05-02T16:04:57.132Z,84.03
2019-05-02T16:07:27.228Z,76.93
2019-05-02T16:10:01.141Z,84.70
2019-05-02T16:12:32.140Z,82.70
2019-05-02T16:14:58.600Z,86.47
2019-05-02T16:17:28.991Z,93.60
2019-05-02T16:20:09.013Z,80.77
2019-05-02T16:22:38.313Z,84.80
2019-05-02T16:25:06.043Z,87.60
2019-05-02T16:27:48.007Z,89.50
2019-05-02T16:30:22.112Z,94.53
2019-05-02T16:32:56.372Z,87.60
2019-05-02T16:35:26.618Z,89.30
2019-05-02T16:37:56.115Z,82.63
2019-05-02T16:40:29.681Z,82.50
2019-05-02T16:42:57.388Z,101.40
2019-05-02T16:45:26.843Z,80.10
2019-05-02T16:48:00.708Z,82.00
2019-05-02T16:50:31.920Z,78.33
2019-05-02T16:52:58.563Z,89.63
2019-05-02T16:55:28.035Z,85.87
2019-05-02T16:58:02.772Z,70.67
2019-05-02T17:00:32.042Z,74.57
2019-05-02T17:03:02.004Z,85.50
2019-05-02T17:05:32.630Z,73.73
2019-05-02T17:08:22.571Z,66.43
2019-05-02T17:10:58.098Z,64.23
2019-05-02T17:13:32.072Z,65.03
2019-05-02T17:15:58.328Z,57.83
2019-05-02T17:18:27.559Z,64.77
2019-05-02T17:20:57.117Z,64.10
2019-05-02T17:23:26.465Z,65.23
2019-05-02T17:25:55.677Z,63.27
2019-05-02T17:28:25.012Z,63.50
2019-05-02T17:30:54.324Z,58.23
2019-05-02T17:33:23.634Z,64.53
2019-05-02T17:35:54.356Z,66.77
2019-05-02T17:38:27.980Z,64.97
2019-05-02T17:40:59.145Z,68.03
2019-05-02T17:43:25.883Z,59.10
2019-05-02T17:45:56.397Z,63.57
2019-05-02T17:48:25.852Z,59.90
2019-05-02T17:51:08.399Z,66.17
2019-05-02T17:53:41.077Z,61.63
2019-05-02T17:56:12.996Z,71.97
2019-05-02T17:58:39.886Z,59.30
2019-05-02T18:01:14.006Z,66.53
2019-05-02T18:03:43.383Z,63.10
2019-05-02T18:06:17.154Z,61.37
2019-05-02T18:08:46.360Z,55.00
2019-05-02T18:11:16.009Z,58.57
2019-05-02T18:13:45.854Z,54.83
2019-05-02T18:16:16.730Z,54.27
2019-05-02T18:18:46.890Z,55.93
2019-05-02T18:21:17.720Z,45.67
2019-05-02T18:23:47.885Z,54.47
2019-05-02T18:26:17.403Z,56.97
2019-05-02T18:28:49.371Z,50.43
2019-05-02T18:31:18.136Z,46.37
2019-05-02T18:33:47.849Z,57.33
2019-05-02T18:36:22.718Z,53.10
2019-05-02T18:38:52.441Z,51.30
2019-05-02T18:41:20.261Z,51.50
2019-05-02T18:43:52.158Z,45.47
2019-05-02T18:46:22.285Z,48.57
2019-05-02T18:48:52.611Z,48.40
2019-05-02T18:51:22.468Z,44.40
2019-05-02T18:53:52.987Z,45.77
2019-05-02T18:56:22.879Z,44.27
2019-05-02T18:58:53.494Z,45.53
2019-05-02T19:01:23.522Z,46.37
2019-05-02T19:03:56.239Z,44.33
2019-05-02T19:06:27.976Z,48.70
2019-05-02T19:08:59.460Z,45.50
2019-05-02T19:11:33.654Z,41.13
2019-05-02T19:14:02.542Z,43.20
2019-05-02T19:16:31.853Z,46.10
2019-05-02T19:19:01.757Z,47.23
2019-05-02T19:21:35.907Z,44.10
2019-05-02T19:24:03.014Z,44.83
2019-05-02T19:26:34.227Z,44.67
2019-05-02T19:29:26.141Z,44.50
2019-05-02T19:31:56.517Z,43.77
2019-05-02T19:34:26.925Z,51.27
2019-05-02T19:36:58.100Z,49.47
2019-05-02T19:39:32.060Z,47.80
2019-05-02T19:42:01.781Z,45.23
2019-05-02T19:44:33.973Z,44.07
2019-05-02T19:47:03.253Z,40.97
2019-05-02T19:49:33.022Z,42.00
2019-05-02T19:52:02.482Z,46.07
2019-05-02T19:54:39.606Z,37.90
2019-05-02T19:57:02.995Z,43.67
2019-05-02T19:59:32.179Z,47.57
2019-05-02T20:02:04.766Z,34.57
2019-05-02T20:04:32.773Z,30.70
2019-05-02T20:07:02.063Z,26.60
2019-05-02T20:09:31.933Z,26.60
2019-05-02T20:12:06.002Z,26.87
2019-05-02T20:14:32.177Z,22.70
2019-05-02T20:17:02.379Z,15.97
2019-05-02T20:19:34.914Z,14.80
2019-05-02T20:22:14.248Z,14.53
2019-05-02T20:24:59.919Z,14.58
2019-05-02T20:27:27.897Z,15.13
2019-05-02T20:29:56.890Z,10.78
2019-05-02T20:32:26.205Z,6.50
2019-05-02T20:34:55.497Z,6.30
2019-05-02T20:37:25.037Z,7.90
2019-05-02T20:39:54.287Z,14.50
2019-05-02T20:42:23.607Z,7.57
2019-05-02T20:44:52.899Z,4.83
2019-05-02T20:47:24.788Z,6.03
2019-05-02T20:49:54.043Z,7.40
2019-05-02T20:52:23.551Z,4.33
2019-05-02T20:54:52.799Z,9.80
2019-05-02T20:57:22.094Z,8.93
2019-05-02T20:59:52.501Z,3.47
2019-05-02T21:02:22.106Z,6.40
2019-05-02T21:04:57.174Z,6.05
2019-05-02T21:07:43.506Z,5.22
2019-05-02T21:10:21.595Z,6.08
2019-05-02T21:12:52.457Z,8.15
2019-05-02T21:15:21.772Z,6.78
2019-05-02T21:17:51.084Z,4.65
2019-05-02T21:20:21.924Z,3.77
2019-05-02T21:22:53.035Z,3.90
2019-05-02T21:25:23.181Z,3.05
2019-05-02T21:27:52.729Z,7.92
2019-05-02T21:30:26.915Z,5.42
2019-05-02T21:32:56.127Z,8.23
2019-05-02T21:35:25.357Z,4.05
2019-05-02T21:37:54.572Z,10.75
2019-05-02T21:40:25.800Z,6.22
2019-05-02T21:42:54.862Z,6.67
2019-05-02T21:45:24.061Z,11.00
2019-05-02T21:47:53.474Z,5.85
2019-05-02T21:50:33.231Z,3.42
2019-05-02T21:53:19.258Z,2.90
2019-05-02T21:56:14.005Z,5.72
2019-05-02T21:59:02.945Z,11.73
2019-05-02T22:01:33.773Z,8.13
2019-05-02T22:04:03.089Z,3.77
2019-05-02T22:06:32.518Z,11.63
2019-05-02T22:09:03.049Z,7.83
2019-05-02T22:11:32.595Z,3.55
2019-05-02T22:14:02.406Z,6.08
2019-05-02T22:16:32.649Z,3.30
2019-05-02T22:19:02.947Z,4.50
2019-05-02T22:21:35.065Z,4.75
2019-05-02T22:24:11.221Z,3.80
2019-05-02T22:26:34.244Z,5.95
2019-05-02T22:29:03.314Z,3.92
2019-05-02T22:31:32.620Z,5.78
2019-05-02T22:34:02.215Z,7.67
2019-05-02T22:36:32.818Z,3.37
2019-05-02T22:39:36.453Z,5.87
2019-05-02T22:42:05.815Z,7.00
2019-05-02T22:44:35.268Z,5.12
2019-05-02T22:47:04.340Z,4.17
2019-05-02T22:49:33.599Z,4.17
2019-05-02T22:52:02.942Z,3.40
2019-05-02T22:54:33.815Z,6.55
2019-05-02T22:57:03.485Z,6.58
2019-05-02T22:59:32.850Z,8.65
2019-05-02T23:02:02.319Z,5.03
2019-05-02T23:04:32.556Z,4.95
2019-05-02T23:07:02.528Z,9.48
2019-05-02T23:09:32.193Z,5.10
2019-05-02T23:12:02.830Z,5.35
2019-05-02T23:14:32.697Z,3.98
2019-05-02T23:17:02.224Z,7.20
2019-05-02T23:19:31.850Z,5.72
2019-05-02T23:22:02.099Z,5.17
2019-05-02T23:24:59.787Z,4.87
2019-05-02T23:27:42.393Z,6.87
2019-05-02T23:30:14.355Z,7.40
2019-05-02T23:32:43.903Z,8.88
2019-05-02T23:35:13.795Z,5.80
2019-05-02T23:37:43.314Z,14.13
2019-05-02T23:40:13.063Z,6.22
2019-05-02T23:42:42.397Z,7.03
2019-05-02T23:45:12.175Z,6.45
2019-05-02T23:47:42.179Z,9.10
2019-05-02T23:50:12.259Z,12.28
2019-05-02T23:52:41.540Z,8.93
2019-05-02T23:55:12.221Z,10.55
2019-05-02T23:57:42.214Z,6.80
